createdAt,value
2023-08-30T00:01:57.697Z,13.30
2023-08-30T00:04:24.334Z,13.40
2023-08-30T00:06:51.631Z,13.30
2023-08-30T00:09:18.555Z,13.40
2023-08-30T00:11:45.485Z,13.40
2023-08-30T00:14:12.142Z,13.40
2023-08-30T00:16:39.732Z,13.30
2023-08-30T00:19:07.076Z,13.40
2023-08-30T00:21:33.787Z,13.40
2023-08-30T00:24:00.494Z,13.40
2023-08-30T00:26:27.335Z,13.40
2023-08-30T00:28:54.092Z,13.40
2023-08-30T00:31:20.942Z,13.30
2023-08-30T00:33:49.349Z,13.30
2023-08-30T00:36:18.288Z,13.30
2023-08-30T00:38:45.197Z,13.30
2023-08-30T00:41:11.944Z,13.30
2023-08-30T00:43:38.682Z,13.40
2023-08-30T00:46:05.407Z,13.30
2023-08-30T00:48:32.084Z,13.30
2023-08-30T00:50:58.806Z,13.30
2023-08-30T00:53:25.894Z,13.30
2023-08-30T00:55:52.710Z,13.30
2023-08-30T00:58:19.582Z,13.30
2023-08-30T01:00:46.399Z,13.30
2023-08-30T01:03:13.193Z,13.30
2023-08-30T01:05:39.981Z,13.30
2023-08-30T01:08:07.219Z,13.30
2023-08-30T01:10:48.259Z,13.30
2023-08-30T01:13:19.157Z,13.30
2023-08-30T01:15:47.230Z,13.30
2023-08-30T01:18:14.322Z,13.30
2023-08-30T01:20:41.391Z,13.30
2023-08-30T01:23:21.889Z,13.40
2023-08-30T01:26:07.388Z,13.40
2023-08-30T01:28:34.747Z,13.40
2023-08-30T01:31:01.686Z,13.30
2023-08-30T01:33:37.419Z,13.40
2023-08-30T01:36:04.770Z,13.30
2023-08-30T01:38:32.915Z,13.30
2023-08-30T01:41:00.964Z,13.40
2023-08-30T01:43:29.781Z,13.30
2023-08-30T01:45:57.543Z,13.40
2023-08-30T01:48:25.033Z,13.30
2023-08-30T01:50:51.819Z,13.30
2023-08-30T01:53:18.830Z,13.30
2023-08-30T01:55:45.515Z,13.30
2023-08-30T01:58:12.933Z,13.30
2023-08-30T02:00:41.197Z,13.30
2023-08-30T02:03:08.821Z,13.30
2023-08-30T02:05:37.109Z,13.30
2023-08-30T02:08:03.780Z,13.30
2023-08-30T02:10:35.346Z,13.30
2023-08-30T02:13:02.885Z,13.30
2023-08-30T02:15:30.672Z,13.30
2023-08-30T02:17:58.443Z,13.40
2023-08-30T02:20:25.347Z,13.40
2023-08-30T02:22:52.034Z,13.40
2023-08-30T02:25:18.796Z,13.40
2023-08-30T02:27:45.539Z,13.50
2023-08-30T02:30:12.263Z,13.50
2023-08-30T02:32:38.951Z,13.50
2023-08-30T02:35:05.940Z,13.60
2023-08-30T02:37:32.617Z,13.60
2023-08-30T02:39:59.348Z,13.60
2023-08-30T02:42:27.169Z,13.60
2023-08-30T02:44:54.234Z,13.60
2023-08-30T02:47:20.911Z,13.60
2023-08-30T02:49:47.644Z,13.60
2023-08-30T02:52:14.372Z,13.60
2023-08-30T02:54:41.088Z,13.60
2023-08-30T02:57:07.807Z,13.60
2023-08-30T02:59:34.515Z,13.60
2023-08-30T03:02:01.185Z,13.60
2023-08-30T03:04:28.350Z,13.60
2023-08-30T03:06:55.006Z,13.60
2023-08-30T03:09:21.657Z,13.70
2023-08-30T03:11:48.363Z,13.60
2023-08-30T03:14:16.753Z,13.60
2023-08-30T03:16:45.824Z,13.50
2023-08-30T03:19:12.508Z,13.40
2023-08-30T03:21:39.231Z,13.40
2023-08-30T03:24:06.067Z,13.30
2023-08-30T03:26:32.726Z,13.30
2023-08-30T03:28:59.353Z,13.30
2023-08-30T03:31:26.102Z,13.20
2023-08-30T03:33:52.795Z,13.20
2023-08-30T03:36:19.602Z,13.20
2023-08-30T03:38:46.432Z,13.20
2023-08-30T03:41:13.484Z,13.30
2023-08-30T03:43:40.308Z,13.30
2023-08-30T03:46:07.042Z,13.30
2023-08-30T03:48:33.803Z,13.30
2023-08-30T03:51:00.525Z,13.30
2023-08-30T03:53:27.194Z,13.30
2023-08-30T03:55:53.954Z,13.30
2023-08-30T03:58:21.040Z,13.30
2023-08-30T04:00:47.850Z,13.30
2023-08-30T04:03:15.439Z,13.40
2023-08-30T04:05:42.540Z,13.40
2023-08-30T04:08:09.690Z,13.40
2023-08-30T04:10:37.011Z,13.40
2023-08-30T04:13:04.239Z,13.40
2023-08-30T04:15:33.625Z,13.40
2023-08-30T04:18:00.366Z,13.40
2023-08-30T04:20:27.274Z,13.40
2023-08-30T04:22:56.121Z,13.50
2023-08-30T04:25:25.658Z,13.50
2023-08-30T04:27:52.725Z,13.40
2023-08-30T04:30:19.459Z,13.50
2023-08-30T04:32:46.223Z,13.40
2023-08-30T04:35:13.016Z,13.50
2023-08-30T04:37:40.240Z,13.40
2023-08-30T04:40:10.467Z,13.40
2023-08-30T04:42:37.517Z,13.50
2023-08-30T04:45:04.584Z,13.40
2023-08-30T04:47:31.431Z,13.40
2023-08-30T04:49:58.248Z,13.40
2023-08-30T04:52:25.086Z,13.40
2023-08-30T04:54:51.741Z,13.50
2023-08-30T04:57:18.693Z,13.40
2023-08-30T04:59:45.782Z,13.50
2023-08-30T05:02:12.745Z,13.50
2023-08-30T05:04:39.419Z,13.50
2023-08-30T05:07:06.201Z,13.50
2023-08-30T05:09:33.662Z,13.50
2023-08-30T05:12:00.464Z,13.50
2023-08-30T05:14:27.984Z,13.50
2023-08-30T05:16:54.829Z,13.50
2023-08-30T05:19:21.566Z,13.50
2023-08-30T05:21:48.309Z,13.60
2023-08-30T05:24:14.985Z,13.60
2023-08-30T05:26:41.656Z,13.70
2023-08-30T05:29:08.662Z,13.70
2023-08-30T05:31:35.349Z,13.80
2023-08-30T05:34:02.027Z,13.80
2023-08-30T05:36:28.683Z,13.80
2023-08-30T05:38:55.397Z,13.80
2023-08-30T05:41:22.079Z,13.90
2023-08-30T05:43:49.279Z,13.90
2023-08-30T05:46:16.860Z,13.90
2023-08-30T05:48:44.134Z,14.00
2023-08-30T05:51:10.799Z,14.00
2023-08-30T05:53:37.994Z,14.00
2023-08-30T05:56:05.093Z,14.10
2023-08-30T05:58:31.782Z,14.10
2023-08-30T06:00:58.494Z,14.10
2023-08-30T06:03:25.158Z,14.10
2023-08-30T06:05:51.804Z,14.10
2023-08-30T06:08:19.240Z,14.10
2023-08-30T06:10:46.461Z,14.10
2023-08-30T06:13:13.333Z,14.20
2023-08-30T06:15:40.195Z,14.20
2023-08-30T06:18:07.215Z,14.30
2023-08-30T06:20:34.127Z,14.30
2023-08-30T06:23:04.114Z,14.30
2023-08-30T06:25:30.886Z,14.30
2023-08-30T06:27:59.914Z,14.30
2023-08-30T06:30:29.726Z,14.30
2023-08-30T06:32:56.900Z,14.30
2023-08-30T06:35:24.913Z,14.40
2023-08-30T06:37:51.654Z,14.40
2023-08-30T06:40:18.317Z,14.40
2023-08-30T06:42:44.999Z,14.50
2023-08-30T06:45:12.259Z,14.50
2023-08-30T06:47:39.020Z,14.50
2023-08-30T06:50:06.050Z,14.60
2023-08-30T06:52:32.758Z,14.70
2023-08-30T06:54:59.472Z,14.80
2023-08-30T06:57:26.165Z,14.80
2023-08-30T06:59:52.858Z,14.90
2023-08-30T07:02:19.519Z,14.90
2023-08-30T07:04:47.274Z,14.80
2023-08-30T07:07:14.658Z,14.80
2023-08-30T07:09:42.889Z,14.80
2023-08-30T07:12:09.638Z,14.90
2023-08-30T07:14:36.313Z,15.00
2023-08-30T07:17:03.060Z,15.00
2023-08-30T07:19:29.845Z,15.10
2023-08-30T07:21:56.528Z,15.10
2023-08-30T07:24:24.162Z,15.20
2023-08-30T07:26:51.381Z,15.20
2023-08-30T07:29:18.040Z,15.10
2023-08-30T07:31:44.807Z,15.00
2023-08-30T07:34:11.515Z,15.00
2023-08-30T07:36:47.133Z,15.10
2023-08-30T07:39:15.070Z,15.20
2023-08-30T07:41:41.770Z,15.20
2023-08-30T07:44:08.518Z,15.30
2023-08-30T07:46:35.215Z,15.40
2023-08-30T07:49:01.956Z,15.40
2023-08-30T07:51:28.675Z,15.60
2023-08-30T07:53:55.372Z,15.50
2023-08-30T07:56:25.896Z,15.60
2023-08-30T07:58:57.564Z,15.70
2023-08-30T08:01:25.950Z,15.70
2023-08-30T08:04:06.441Z,15.80
2023-08-30T08:07:17.147Z,15.70
2023-08-30T08:09:49.123Z,15.80
2023-08-30T08:12:17.544Z,15.80
2023-08-30T08:14:49.019Z,16.00
2023-08-30T08:17:38.090Z,16.10
2023-08-30T08:20:06.445Z,16.00
2023-08-30T08:22:33.783Z,16.00
2023-08-30T08:25:01.840Z,16.10
2023-08-30T08:27:28.536Z,16.40
2023-08-30T08:29:55.222Z,16.30
2023-08-30T08:32:21.988Z,16.30
2023-08-30T08:34:49.678Z,16.30
2023-08-30T08:37:16.405Z,16.30
2023-08-30T08:39:44.291Z,16.40
2023-08-30T08:42:11.140Z,16.30
2023-08-30T08:44:42.999Z,16.40
2023-08-30T08:47:09.963Z,16.60
2023-08-30T08:49:36.636Z,16.70
2023-08-30T08:52:12.263Z,16.80
2023-08-30T08:54:43.888Z,17.00
2023-08-30T08:57:11.623Z,17.00
2023-08-30T08:59:38.340Z,16.90
2023-08-30T09:02:05.420Z,16.80
2023-08-30T09:04:32.380Z,16.90
2023-08-30T09:07:02.726Z,16.90
2023-08-30T09:09:29.486Z,16.90
2023-08-30T09:11:56.215Z,16.90
2023-08-30T09:14:22.859Z,17.00
2023-08-30T09:16:57.009Z,16.90
2023-08-30T09:19:23.963Z,17.00
2023-08-30T09:21:54.128Z,17.10
2023-08-30T09:24:21.526Z,17.10
2023-08-30T09:26:55.233Z,17.10
2023-08-30T09:29:23.095Z,17.00
2023-08-30T09:31:52.781Z,17.10
2023-08-30T09:34:22.944Z,17.20
2023-08-30T09:36:51.228Z,17.30
2023-08-30T09:39:18.321Z,17.30
2023-08-30T09:41:45.784Z,17.20
2023-08-30T09:44:20.348Z,17.20
2023-08-30T09:46:52.072Z,17.40
2023-08-30T09:49:19.964Z,17.60
2023-08-30T09:51:47.589Z,17.80
2023-08-30T09:56:53.778Z,17.40
2023-08-30T09:59:20.705Z,17.20
2023-08-30T10:01:49.157Z,17.20
2023-08-30T10:04:16.366Z,17.50
2023-08-30T10:06:43.872Z,17.80
2023-08-30T10:09:10.588Z,18.00
2023-08-30T10:11:38.167Z,18.20
2023-08-30T10:14:08.294Z,18.20
2023-08-30T10:16:48.543Z,18.00
2023-08-30T10:19:15.964Z,18.00
2023-08-30T10:21:44.660Z,18.00
2023-08-30T10:24:26.520Z,17.80
2023-08-30T10:27:01.185Z,17.70
2023-08-30T10:29:28.851Z,17.40
2023-08-30T10:32:12.394Z,17.30
2023-08-30T10:34:39.080Z,17.30
2023-08-30T10:37:09.498Z,17.40
2023-08-30T10:39:40.245Z,17.50
2023-08-30T10:42:13.936Z,17.50
2023-08-30T10:45:10.520Z,17.60
2023-08-30T10:47:43.357Z,17.80
2023-08-30T10:50:11.575Z,18.20
2023-08-30T10:52:39.108Z,18.60
2023-08-30T10:55:17.137Z,18.70
2023-08-30T10:57:45.184Z,18.90
2023-08-30T11:00:12.362Z,18.90
2023-08-30T11:02:39.665Z,18.90
2023-08-30T11:05:09.822Z,18.60
2023-08-30T11:07:38.132Z,18.30
2023-08-30T11:10:08.113Z,18.30
2023-08-30T11:12:37.167Z,18.30
2023-08-30T11:15:14.517Z,18.40
2023-08-30T11:17:41.320Z,18.30
2023-08-30T11:20:12.212Z,18.20
2023-08-30T11:22:39.269Z,18.10
2023-08-30T11:25:06.185Z,18.10
2023-08-30T11:27:33.015Z,18.20
2023-08-30T11:30:00.559Z,18.20
2023-08-30T11:32:27.227Z,18.40
2023-08-30T11:34:58.547Z,18.50
2023-08-30T11:37:28.570Z,18.40
2023-08-30T11:39:59.946Z,18.20
2023-08-30T11:42:29.548Z,18.10
2023-08-30T11:44:59.488Z,18.00
2023-08-30T11:47:26.927Z,17.90
2023-08-30T11:49:54.874Z,17.80
2023-08-30T11:52:22.074Z,17.60
2023-08-30T11:54:49.082Z,17.60
2023-08-30T11:57:15.881Z,17.50
2023-08-30T11:59:44.371Z,17.40
2023-08-30T12:02:13.789Z,17.30
2023-08-30T12:04:43.932Z,17.30
2023-08-30T12:07:12.135Z,17.20
2023-08-30T12:09:39.063Z,17.30
2023-08-30T12:12:06.636Z,17.40
2023-08-30T12:14:36.485Z,17.60
2023-08-30T12:17:06.152Z,17.80
2023-08-30T12:19:33.713Z,18.00
2023-08-30T12:22:07.369Z,18.20
2023-08-30T12:24:46.397Z,18.50
2023-08-30T12:27:13.496Z,18.70
2023-08-30T12:29:41.022Z,18.70
2023-08-30T12:32:08.617Z,18.70
2023-08-30T12:34:35.473Z,18.70
2023-08-30T12:37:05.288Z,18.70
2023-08-30T12:39:32.912Z,18.80
2023-08-30T12:41:59.856Z,18.80
2023-08-30T12:44:26.637Z,18.70
2023-08-30T12:46:53.515Z,18.70
2023-08-30T12:49:20.241Z,18.80
2023-08-30T12:51:47.196Z,18.90
2023-08-30T12:54:13.931Z,19.00
2023-08-30T12:56:40.624Z,19.00
2023-08-30T12:59:10.216Z,18.90
2023-08-30T13:01:39.359Z,18.90
2023-08-30T13:04:08.933Z,18.90
2023-08-30T13:06:35.874Z,18.90
2023-08-30T13:09:02.884Z,18.80
2023-08-30T13:11:29.732Z,18.70
2023-08-30T13:13:59.176Z,18.80
2023-08-30T13:16:26.646Z,18.90
2023-08-30T13:18:58.492Z,19.00
2023-08-30T13:21:35.257Z,19.10
2023-08-30T13:24:06.434Z,19.30
2023-08-30T13:26:33.174Z,19.50
2023-08-30T13:29:03.167Z,19.40
2023-08-30T13:31:30.369Z,19.30
2023-08-30T13:33:57.212Z,19.20
2023-08-30T13:36:23.940Z,19.00
2023-08-30T13:38:50.622Z,18.80
2023-08-30T13:41:17.565Z,18.60
2023-08-30T13:43:44.233Z,18.50
2023-08-30T13:46:11.875Z,18.40
2023-08-30T13:48:38.730Z,18.30
2023-08-30T13:51:05.590Z,18.20
2023-08-30T13:53:32.317Z,18.10
2023-08-30T13:55:58.948Z,18.10
2023-08-30T13:58:25.694Z,18.00
2023-08-30T14:00:52.426Z,18.10
2023-08-30T14:03:22.151Z,18.10
2023-08-30T14:05:48.909Z,18.10
2023-08-30T14:08:15.659Z,18.10
2023-08-30T14:10:42.427Z,18.20
2023-08-30T14:13:09.734Z,18.20
2023-08-30T14:15:36.934Z,18.30
2023-08-30T14:18:04.256Z,18.30
2023-08-30T14:20:31.256Z,18.50
2023-08-30T14:22:58.013Z,18.50
2023-08-30T14:25:24.891Z,18.50
2023-08-30T14:27:51.755Z,18.50
2023-08-30T14:30:18.564Z,18.50
2023-08-30T14:32:45.313Z,18.50
2023-08-30T14:35:12.561Z,18.50
2023-08-30T14:37:40.648Z,18.40
2023-08-30T14:40:07.609Z,18.30
2023-08-30T14:42:34.464Z,18.20
2023-08-30T14:45:01.203Z,18.10
2023-08-30T14:47:27.916Z,18.10
2023-08-30T14:49:56.657Z,18.00
2023-08-30T14:52:23.330Z,18.00
2023-08-30T14:54:50.146Z,17.90
2023-08-30T14:57:16.872Z,17.80
2023-08-30T14:59:43.558Z,17.80
2023-08-30T15:02:13.655Z,17.80
2023-08-30T15:04:40.866Z,17.80
2023-08-30T15:07:07.727Z,17.80
2023-08-30T15:09:34.467Z,17.80
2023-08-30T15:12:01.144Z,17.80
2023-08-30T15:14:27.826Z,17.80
2023-08-30T15:16:54.574Z,17.70
2023-08-30T15:19:47.782Z,17.70
2023-08-30T15:22:14.457Z,17.80
2023-08-30T15:24:41.289Z,17.70
2023-08-30T15:27:08.057Z,17.70
2023-08-30T15:29:34.795Z,17.70
2023-08-30T15:32:01.573Z,17.70
2023-08-30T15:34:28.371Z,17.70
2023-08-30T15:36:55.068Z,17.80
2023-08-30T15:39:22.013Z,17.80
2023-08-30T15:41:49.506Z,17.80
2023-08-30T15:44:16.464Z,17.80
2023-08-30T15:46:43.240Z,17.90
2023-08-30T15:49:10.191Z,17.90
2023-08-30T15:51:36.893Z,17.90
2023-08-30T15:54:03.628Z,17.90
2023-08-30T15:56:30.320Z,17.90
2023-08-30T15:58:57.101Z,17.80
2023-08-30T16:01:23.923Z,17.80
2023-08-30T16:04:00.015Z,17.80
2023-08-30T16:06:26.893Z,17.80
2023-08-30T16:08:53.883Z,17.80
2023-08-30T16:11:20.564Z,17.80
2023-08-30T16:13:47.310Z,17.80
2023-08-30T16:16:14.203Z,17.80
2023-08-30T16:18:41.150Z,17.70
2023-08-30T16:21:07.851Z,17.70
2023-08-30T16:23:34.504Z,17.70
2023-08-30T16:26:01.382Z,17.70
2023-08-30T16:28:28.339Z,17.70
2023-08-30T16:30:59.544Z,17.60
2023-08-30T16:33:26.729Z,17.60
2023-08-30T16:35:54.369Z,17.60
2023-08-30T16:38:21.066Z,17.50
2023-08-30T16:40:50.492Z,17.50
2023-08-30T16:43:17.229Z,17.40
2023-08-30T16:45:43.965Z,17.40
2023-08-30T16:48:12.050Z,17.30
2023-08-30T16:50:38.882Z,17.40
2023-08-30T16:53:08.868Z,17.40
2023-08-30T16:55:35.727Z,17.30
2023-08-30T16:58:02.440Z,17.30
2023-08-30T17:00:29.135Z,17.30
2023-08-30T17:02:57.364Z,17.10
2023-08-30T17:05:24.271Z,17.10
2023-08-30T17:07:56.978Z,17.00
2023-08-30T17:10:26.698Z,16.90
2023-08-30T17:12:57.863Z,16.80
2023-08-30T17:15:26.305Z,16.70
2023-08-30T17:17:54.525Z,16.70
2023-08-30T17:20:21.400Z,16.70
2023-08-30T17:22:51.881Z,16.70
2023-08-30T17:25:19.892Z,16.60
2023-08-30T17:27:49.863Z,16.60
2023-08-30T17:30:20.352Z,16.50
2023-08-30T17:33:16.410Z,16.40
2023-08-30T17:38:29.365Z,16.20
2023-08-30T17:41:10.329Z,16.20
2023-08-30T17:42:15.745Z,16.30
2023-08-30T17:43:39.761Z,16.10
2023-08-30T17:46:39.136Z,16.10
2023-08-30T17:49:03.419Z,16.10
2023-08-30T17:51:30.313Z,16.00
2023-08-30T17:53:59.210Z,15.90
2023-08-30T17:56:26.436Z,15.90
2023-08-30T17:58:55.179Z,15.90
2023-08-30T18:02:09.485Z,15.90
2023-08-30T18:04:31.214Z,15.90
2023-08-30T18:07:03.476Z,15.80
2023-08-30T18:09:32.601Z,15.80
2023-08-30T18:12:00.044Z,15.80
2023-08-30T18:14:29.136Z,15.80
2023-08-30T18:16:56.146Z,15.80
2023-08-30T18:19:24.043Z,15.80
2023-08-30T18:22:00.041Z,15.80
2023-08-30T18:24:26.946Z,15.80
2023-08-30T18:26:58.299Z,15.70
2023-08-30T18:29:39.185Z,15.70
2023-08-30T18:32:15.088Z,15.70
2023-08-30T18:34:43.469Z,15.60
2023-08-30T18:37:15.269Z,15.60
2023-08-30T18:40:17.655Z,15.60
2023-08-30T18:42:44.412Z,15.70
2023-08-30T18:45:25.436Z,15.60
2023-08-30T18:48:06.262Z,15.60
2023-08-30T18:50:34.421Z,15.60
2023-08-30T18:53:03.616Z,15.60
2023-08-30T18:55:34.070Z,15.50
2023-08-30T18:58:01.198Z,15.50
2023-08-30T19:00:29.077Z,15.50
2023-08-30T19:02:56.085Z,15.50
2023-08-30T19:05:23.103Z,15.50
2023-08-30T19:07:50.439Z,15.50
2023-08-30T19:10:17.166Z,15.40
2023-08-30T19:12:43.881Z,15.40
2023-08-30T19:15:16.949Z,15.40
2023-08-30T19:17:51.730Z,15.40
2023-08-30T19:20:24.558Z,15.40
2023-08-30T19:22:53.896Z,15.40
2023-08-30T19:25:35.841Z,15.40
2023-08-30T19:28:04.236Z,15.40
2023-08-30T19:30:36.220Z,15.40
2023-08-30T19:35:57.824Z,15.40
2023-08-30T19:38:29.622Z,15.30
2023-08-30T19:38:46.772Z,15.40
2023-08-30T19:40:59.599Z,15.40
2023-08-30T19:43:26.690Z,15.30
2023-08-30T19:46:01.810Z,15.30
2023-08-30T19:48:29.348Z,15.30
2023-08-30T19:51:11.232Z,15.30
2023-08-30T19:53:38.262Z,15.30
2023-08-30T19:56:07.260Z,15.20
2023-08-30T19:58:41.551Z,15.20
2023-08-30T20:01:10.000Z,15.20
2023-08-30T20:03:40.146Z,15.20
2023-08-30T20:08:47.936Z,15.10
2023-08-30T20:11:29.608Z,15.00
2023-08-30T20:17:09.422Z,15.00
2023-08-30T20:20:14.053Z,15.10
2023-08-30T20:22:46.364Z,15.00
2023-08-30T20:25:17.196Z,15.00
2023-08-30T20:27:44.089Z,15.00
2023-08-30T20:30:14.435Z,15.00
2023-08-30T20:32:51.144Z,15.00
2023-08-30T20:35:27.258Z,15.00
2023-08-30T20:37:55.669Z,15.00
2023-08-30T20:40:22.523Z,14.90
2023-08-30T20:42:51.557Z,14.90
2023-08-30T20:45:28.793Z,14.90
2023-08-30T20:47:58.314Z,14.80
2023-08-30T20:50:26.364Z,14.80
2023-08-30T20:52:53.210Z,14.80
2023-08-30T20:55:34.177Z,14.80
2023-08-30T20:58:07.637Z,14.80
2023-08-30T21:01:06.378Z,14.80
2023-08-30T21:03:53.972Z,14.80
2023-08-30T21:06:20.963Z,14.70
2023-08-30T21:08:49.264Z,14.80
2023-08-30T21:11:16.186Z,14.70
2023-08-30T21:13:45.202Z,14.70
2023-08-30T21:16:15.002Z,14.70
2023-08-30T21:18:41.845Z,14.70
2023-08-30T21:21:08.553Z,14.80
2023-08-30T21:23:35.216Z,14.70
2023-08-30T21:26:01.901Z,14.70
2023-08-30T21:28:28.577Z,14.70
2023-08-30T21:30:55.324Z,14.70
2023-08-30T21:33:24.943Z,14.60
2023-08-30T21:35:52.260Z,14.60
2023-08-30T21:38:19.994Z,14.70
2023-08-30T21:40:47.109Z,14.70
2023-08-30T21:43:14.690Z,14.60
2023-08-30T21:45:43.165Z,14.70
2023-08-30T21:48:10.721Z,14.60
2023-08-30T21:50:38.000Z,14.60
2023-08-30T21:53:05.156Z,14.60
2023-08-30T21:55:31.834Z,14.50
2023-08-30T21:57:58.955Z,14.50
2023-08-30T22:00:25.641Z,14.50
2023-08-30T22:02:58.601Z,14.40
2023-08-30T22:05:25.530Z,14.30
2023-08-30T22:07:52.878Z,14.30
2023-08-30T22:10:20.303Z,14.20
2023-08-30T22:12:49.046Z,14.20
2023-08-30T22:15:16.618Z,14.10
2023-08-30T22:17:45.109Z,14.10
2023-08-30T22:20:12.311Z,13.90
2023-08-30T22:22:41.679Z,13.70
2023-08-30T22:25:09.339Z,13.60
2023-08-30T22:27:36.305Z,13.50
2023-08-30T22:30:03.725Z,13.40
2023-08-30T22:32:33.552Z,13.40
2023-08-30T22:35:00.486Z,13.50
2023-08-30T22:37:27.215Z,13.50
2023-08-30T22:39:54.072Z,13.50
2023-08-30T22:42:20.756Z,13.40
2023-08-30T22:44:48.424Z,13.40
2023-08-30T22:47:15.752Z,13.30
2023-08-30T22:49:42.722Z,13.20
2023-08-30T22:52:09.694Z,13.20
2023-08-30T22:54:40.005Z,13.20
2023-08-30T22:57:07.038Z,13.10
2023-08-30T22:59:34.010Z,13.10
2023-08-30T23:02:00.757Z,13.10
2023-08-30T23:04:27.620Z,13.10
2023-08-30T23:06:54.388Z,13.00
2023-08-30T23:09:22.122Z,13.00
2023-08-30T23:11:49.502Z,12.90
2023-08-30T23:14:20.330Z,12.80
2023-08-30T23:16:48.459Z,12.70
2023-08-30T23:19:15.243Z,12.70
2023-08-30T23:21:41.937Z,12.70
2023-08-30T23:24:08.844Z,12.60
2023-08-30T23:26:38.063Z,12.60
2023-08-30T23:29:06.420Z,12.70
2023-08-30T23:31:33.744Z,12.70
2023-08-30T23:34:00.828Z,12.80
2023-08-30T23:36:30.268Z,12.80
2023-08-30T23:38:57.105Z,12.70
2023-08-30T23:41:23.917Z,12.70
2023-08-30T23:43:50.580Z,12.70
2023-08-30T23:46:17.901Z,12.70
2023-08-30T23:48:44.850Z,12.70
2023-08-30T23:51:11.696Z,12.60
2023-08-30T23:53:38.870Z,12.50
2023-08-30T23:56:06.067Z,12.50
2023-08-30T23:58:33.613Z,12.50
